Allen, MD

10:39 AM EDT on April 21, 2015 (GMT -0400)
Mathialoc's Nest | | Change Station
CLOSE
Current Station
Personal Weather Station
Location: Eden, MD
Elevation: 49 ft
Nearby Weather Stations

Elev 49 ft 38.25 °N, 75.61 °W | Updated 19 seconds ago

Partly Cloudy
Partly Cloudy
62.8 °F
Feels Like 62.8 °F
N
4.0
Wind Variable Wind from North
Gusts 7.4 mph

Today
High -- | Low -- °F
--% Chance of Precip.
Yesterday
High -- | Low -- °F
Precip. -- in
6:19 AM 7:44 PM
Waxing Crescent, 11% visible
Pressure 29.77 in
Visibility 10.0 miles
Clouds Mostly Cloudy 6000 ft
Dew Point 38 °F
Humidity 40%
Rainfall 0.00 in
Snow Depth Not available.
UV 3 out of 12
Pollen 10.50 out of 12
Air Quality Not available.
Flu Activity Regional
METAR KSBY 211354Z 31014G19KT 10SM BKN060 17/06 A2976 RMK AO2 SLP081 T01670056

More Conditions Fewer Conditions

Pressure 29.77 in
Visibility 10.0 miles
Clouds Mostly Cloudy 6000 ft
Dew Point 38 °F
Humidity 40%
Rainfall 0.00 in
Snow Depth Not available.
UV 3 out of 12
Pollen 10.50 out of 12
Air Quality Not available.
Flu Activity Regional
METAR KSBY 211354Z 31014G19KT 10SM BKN060 17/06 A2976 RMK AO2 SLP081 T01670056

More Conditions Fewer Conditions

10-Day Weather Forecast

Almanac

Astronomy

Apr. 21, 2015 Rise Set
Actual Time
Civil Twilight
Nautical Twilight
Astronomical Twilight
Moon
Length of Visible Light
Length of Day
Tomorrow will be .
, % of the Moon is Illuminated

Today's Extremes

State Highs State Lows

Community

WunderPhotos

Upload Photos

1,815,408 photos uploaded!

WunderBlogs® & News

Nearby

Air Quality

  Air Quality AQ Index Pollutant
Not available.

Snow Depth

Station Depth Elevation

Earthquake Activity

City Distance Mag. Time & Date
Minimum magnitude displayed is 2.5.

Coastal Water Temperatures

Place Temperature

Stations

Nearby Weather Stations

Station Location Temp. Windchill Dew Point Humidity Wind Precip. Elev Updated Type